createdAt,value
2022-07-29T00:01:44.424Z,63.89
2022-07-29T00:04:46.264Z,64.05
2022-07-29T00:07:48.195Z,63.98
2022-07-29T00:10:49.987Z,64.04
2022-07-29T00:13:51.773Z,63.96
2022-07-29T00:16:53.918Z,64.03
2022-07-29T00:19:55.922Z,64.60
2022-07-29T00:22:58.132Z,64.99
2022-07-29T00:26:00.142Z,64.35
2022-07-29T00:29:32.630Z,64.71
2022-07-29T00:32:26.525Z,64.92
2022-07-29T00:35:46.696Z,65.86
2022-07-29T00:38:49.980Z,65.28
2022-07-29T00:41:51.777Z,65.54
2022-07-29T00:44:53.645Z,65.21
2022-07-29T00:47:55.481Z,65.26
2022-07-29T00:51:02.412Z,65.25
2022-07-29T00:54:08.178Z,65.35
2022-07-29T00:57:10.033Z,66.45
2022-07-29T01:00:15.488Z,66.29
2022-07-29T01:03:17.426Z,66.30
2022-07-29T01:06:20.084Z,66.44
2022-07-29T01:09:42.976Z,66.46
2022-07-29T01:12:47.384Z,66.61
2022-07-29T01:15:57.751Z,66.93
2022-07-29T01:19:14.134Z,67.24
2022-07-29T01:22:53.648Z,66.51
2022-07-29T01:26:14.424Z,66.70
2022-07-29T01:29:36.264Z,67.37
2022-07-29T01:32:48.730Z,67.58
2022-07-29T01:35:51.093Z,67.88
2022-07-29T01:39:06.609Z,68.67
2022-07-29T01:42:20.221Z,68.85
2022-07-29T01:45:38.427Z,69.14
2022-07-29T01:49:07.173Z,69.54
2022-07-29T01:52:19.978Z,70.04
2022-07-29T01:55:27.456Z,70.55
2022-07-29T01:58:32.421Z,70.39
2022-07-29T02:01:37.078Z,70.84
2022-07-29T02:04:40.942Z,70.99
2022-07-29T02:07:45.177Z,70.65
2022-07-29T02:10:49.668Z,70.78
2022-07-29T02:13:55.935Z,70.81
2022-07-29T02:17:01.779Z,71.05
2022-07-29T02:20:05.986Z,71.33
2022-07-29T02:23:10.710Z,71.23
2022-07-29T02:26:12.935Z,71.49
2022-07-29T02:29:16.424Z,72.23
2022-07-29T02:32:20.433Z,72.40
2022-07-29T02:35:23.633Z,72.59
2022-07-29T02:38:48.416Z,72.48
2022-07-29T02:41:53.630Z,73.07
2022-07-29T02:44:56.307Z,73.22
2022-07-29T02:48:01.015Z,72.86
2022-07-29T02:51:13.405Z,73.51
2022-07-29T02:54:41.693Z,73.65
2022-07-29T02:58:02.107Z,72.89
2022-07-29T03:01:21.719Z,73.18
2022-07-29T03:04:26.677Z,73.67
2022-07-29T03:07:29.415Z,73.66
2022-07-29T03:10:32.106Z,73.18
2022-07-29T03:13:34.265Z,73.50
2022-07-29T03:16:41.158Z,74.19
2022-07-29T03:19:43.725Z,74.23
2022-07-29T03:22:48.174Z,74.08
2022-07-29T03:25:50.992Z,74.61
2022-07-29T03:28:52.981Z,74.10
2022-07-29T03:31:55.875Z,74.16
2022-07-29T03:34:57.991Z,73.87
2022-07-29T03:38:00.300Z,73.67
2022-07-29T03:41:08.714Z,73.69
2022-07-29T03:44:12.254Z,73.90
2022-07-29T03:47:16.049Z,73.77
2022-07-29T03:50:20.454Z,74.46
2022-07-29T03:53:22.574Z,74.45
2022-07-29T03:56:25.599Z,73.96
2022-07-29T03:59:28.812Z,75.06
2022-07-29T04:02:31.514Z,74.91
2022-07-29T04:05:33.582Z,74.06
2022-07-29T04:08:35.665Z,73.74
2022-07-29T04:12:03.873Z,74.32
2022-07-29T04:15:09.718Z,74.36
2022-07-29T04:18:11.387Z,73.83
2022-07-29T04:21:13.072Z,73.57
2022-07-29T04:24:15.870Z,72.91
2022-07-29T04:27:18.070Z,72.51
2022-07-29T04:30:19.783Z,72.69
2022-07-29T04:33:21.747Z,73.08
2022-07-29T04:36:28.708Z,73.00
2022-07-29T04:39:31.569Z,72.07
2022-07-29T04:42:33.548Z,72.86
2022-07-29T04:45:35.300Z,72.51
2022-07-29T04:48:37.631Z,72.36
2022-07-29T04:51:39.671Z,72.15
2022-07-29T04:54:41.688Z,71.88
2022-07-29T04:57:43.595Z,72.26
2022-07-29T05:00:45.636Z,71.41
2022-07-29T05:03:47.418Z,71.13
2022-07-29T05:06:49.730Z,70.10
2022-07-29T05:09:51.788Z,70.23
2022-07-29T05:12:53.550Z,68.45
2022-07-29T05:15:55.622Z,68.79
2022-07-29T05:18:57.345Z,69.08
2022-07-29T05:21:59.764Z,68.99
2022-07-29T05:25:06.975Z,69.41
2022-07-29T05:28:10.864Z,67.59
2022-07-29T05:31:12.932Z,67.15
2022-07-29T05:34:15.285Z,66.63
2022-07-29T05:37:17.409Z,66.43
2022-07-29T05:40:19.297Z,65.64
2022-07-29T05:43:21.931Z,66.06
2022-07-29T05:46:24.192Z,65.55
2022-07-29T05:49:27.345Z,65.48
2022-07-29T05:52:29.544Z,66.35
2022-07-29T05:55:32.017Z,65.60
2022-07-29T05:58:34.572Z,65.24
2022-07-29T06:01:40.272Z,65.56
2022-07-29T06:04:42.313Z,64.64
2022-07-29T06:07:50.731Z,63.37
2022-07-29T06:10:54.619Z,63.15
2022-07-29T06:13:56.568Z,61.98
2022-07-29T06:16:58.586Z,62.19
2022-07-29T06:20:00.616Z,59.96
2022-07-29T06:23:02.437Z,59.48
2022-07-29T06:26:04.421Z,59.54
2022-07-29T06:29:07.507Z,59.61
2022-07-29T06:32:10.275Z,58.16
2022-07-29T06:35:39.297Z,58.91
2022-07-29T06:38:37.452Z,57.72
2022-07-29T06:41:51.329Z,55.64
2022-07-29T06:44:53.425Z,54.94
2022-07-29T06:47:55.586Z,54.03
2022-07-29T06:50:57.782Z,53.76
2022-07-29T06:54:03.227Z,53.69
2022-07-29T06:57:05.425Z,53.68
2022-07-29T07:00:08.526Z,53.60
2022-07-29T07:03:10.364Z,54.07
2022-07-29T07:06:15.124Z,53.26
2022-07-29T07:09:17.296Z,52.51
2022-07-29T07:12:40.595Z,51.22
2022-07-29T07:15:42.389Z,51.04
2022-07-29T07:18:46.198Z,50.78
2022-07-29T07:21:49.169Z,49.57
2022-07-29T07:24:51.245Z,49.69
2022-07-29T07:27:53.264Z,49.89
2022-07-29T07:30:55.187Z,49.38
2022-07-29T07:33:57.217Z,49.59
2022-07-29T07:36:59.081Z,50.54
2022-07-29T07:40:01.744Z,51.23
2022-07-29T07:43:03.829Z,51.46
2022-07-29T07:46:06.122Z,52.77
2022-07-29T07:49:08.062Z,52.64
2022-07-29T07:52:11.088Z,53.12
2022-07-29T07:55:13.157Z,52.69
2022-07-29T07:58:15.278Z,52.71
2022-07-29T08:01:19.973Z,53.16
2022-07-29T08:04:27.098Z,52.82
2022-07-29T08:07:30.371Z,53.17
2022-07-29T08:10:51.803Z,54.08
2022-07-29T08:13:54.103Z,53.51
2022-07-29T08:16:56.088Z,53.49
2022-07-29T08:19:58.130Z,53.81
2022-07-29T08:23:00.375Z,53.66
2022-07-29T08:26:02.367Z,54.64
2022-07-29T08:29:04.370Z,53.54
2022-07-29T08:32:07.117Z,53.79
2022-07-29T08:35:09.853Z,52.00
2022-07-29T08:38:11.795Z,52.37
2022-07-29T08:41:13.856Z,52.13
2022-07-29T08:44:18.331Z,51.58
2022-07-29T08:47:34.064Z,52.23
2022-07-29T08:50:37.926Z,50.29
2022-07-29T08:53:43.472Z,49.77
2022-07-29T08:56:49.064Z,49.28
2022-07-29T08:59:53.656Z,49.48
2022-07-29T09:02:58.485Z,47.36
2022-07-29T09:06:00.403Z,47.39
2022-07-29T09:09:02.471Z,47.80
2022-07-29T09:12:05.922Z,47.21
2022-07-29T09:15:08.744Z,47.14
2022-07-29T09:18:20.658Z,46.86
2022-07-29T09:22:00.504Z,46.50
2022-07-29T09:25:05.497Z,46.03
2022-07-29T09:28:15.457Z,45.34
2022-07-29T09:31:17.458Z,45.58
2022-07-29T09:34:24.778Z,46.27
2022-07-29T09:37:28.865Z,44.86
2022-07-29T09:40:30.863Z,43.83
2022-07-29T09:43:33.125Z,45.28
2022-07-29T09:46:35.724Z,45.93
2022-07-29T09:49:56.264Z,45.72
2022-07-29T09:52:58.146Z,45.88
2022-07-29T09:56:00.527Z,44.51
2022-07-29T09:59:09.596Z,44.55
2022-07-29T10:02:23.764Z,42.89
2022-07-29T10:05:36.443Z,43.09
2022-07-29T10:08:38.999Z,43.82
2022-07-29T10:11:49.671Z,42.33
2022-07-29T10:14:52.370Z,42.00
2022-07-29T10:17:55.887Z,42.37
2022-07-29T10:20:59.225Z,43.42
2022-07-29T10:24:02.147Z,42.79
2022-07-29T10:27:06.248Z,42.82
2022-07-29T10:30:08.907Z,43.21
2022-07-29T10:33:16.685Z,44.09
2022-07-29T10:36:44.352Z,43.48
2022-07-29T10:40:34.831Z,43.03
2022-07-29T10:43:42.320Z,43.40
2022-07-29T10:46:45.047Z,43.16
2022-07-29T10:49:57.876Z,43.81
2022-07-29T10:52:59.989Z,44.69
2022-07-29T10:56:02.494Z,44.93
2022-07-29T10:59:36.212Z,45.63
2022-07-29T11:02:43.485Z,46.55
2022-07-29T11:05:55.106Z,46.06
2022-07-29T11:09:25.540Z,46.84
2022-07-29T11:12:39.863Z,45.52
2022-07-29T11:15:58.523Z,46.45
2022-07-29T11:19:13.197Z,47.21
2022-07-29T11:22:43.169Z,46.13
2022-07-29T11:26:15.134Z,45.96
2022-07-29T11:29:27.995Z,47.00
2022-07-29T11:32:44.805Z,45.83
2022-07-29T11:36:10.063Z,46.54
2022-07-29T11:39:36.285Z,46.11
2022-07-29T11:42:44.991Z,45.96
2022-07-29T11:45:48.283Z,45.68
2022-07-29T11:48:50.266Z,45.68
2022-07-29T11:52:02.592Z,44.99
2022-07-29T11:55:09.588Z,45.54
2022-07-29T11:58:12.055Z,44.90
2022-07-29T12:01:18.429Z,44.27
2022-07-29T12:04:20.243Z,44.55
2022-07-29T12:07:35.126Z,44.39
2022-07-29T12:10:38.212Z,43.67
2022-07-29T12:13:40.862Z,41.54
2022-07-29T12:16:42.681Z,42.45
2022-07-29T12:19:46.076Z,41.58
2022-07-29T12:22:49.526Z,42.41
2022-07-29T12:25:51.596Z,42.40
2022-07-29T12:28:56.772Z,40.34
2022-07-29T12:31:59.731Z,39.52
2022-07-29T12:35:05.816Z,39.64
2022-07-29T12:38:11.084Z,41.41
2022-07-29T12:41:13.977Z,39.55
2022-07-29T12:44:16.021Z,39.85
2022-07-29T12:47:19.914Z,40.50
2022-07-29T12:50:26.183Z,40.51
2022-07-29T12:53:29.212Z,40.17
2022-07-29T12:56:46.828Z,41.42
2022-07-29T13:00:09.023Z,41.31
2022-07-29T13:03:10.977Z,42.29
2022-07-29T13:06:41.116Z,41.61
2022-07-29T13:09:45.694Z,39.79
2022-07-29T13:13:23.192Z,40.62
2022-07-29T13:16:25.365Z,40.63
2022-07-29T13:19:39.185Z,39.64
2022-07-29T13:22:48.241Z,40.21
2022-07-29T13:25:49.994Z,39.53
2022-07-29T13:28:51.763Z,38.05
2022-07-29T13:31:54.084Z,37.11
2022-07-29T13:34:58.096Z,35.28
2022-07-29T13:38:00.068Z,35.47
2022-07-29T13:41:02.130Z,34.89
2022-07-29T13:44:03.935Z,33.76
2022-07-29T13:47:06.550Z,33.69
2022-07-29T13:50:11.006Z,35.72
2022-07-29T13:53:17.979Z,33.38
2022-07-29T13:56:20.126Z,33.61
2022-07-29T13:59:21.818Z,34.22
2022-07-29T14:02:25.702Z,34.70
2022-07-29T14:05:27.741Z,35.33
2022-07-29T14:08:29.465Z,33.54
2022-07-29T14:11:31.377Z,30.92
2022-07-29T14:14:33.430Z,29.60
2022-07-29T14:17:35.784Z,28.99
2022-07-29T14:20:37.805Z,28.22
2022-07-29T14:23:39.807Z,26.14
2022-07-29T14:26:44.456Z,26.26
2022-07-29T14:29:48.520Z,26.64
2022-07-29T14:32:50.716Z,27.56
2022-07-29T14:35:52.424Z,27.46
2022-07-29T14:38:54.085Z,27.05
2022-07-29T14:41:56.430Z,26.97
2022-07-29T14:44:58.523Z,25.70
2022-07-29T14:48:00.926Z,28.19
2022-07-29T14:51:04.919Z,28.25
2022-07-29T14:54:07.008Z,29.08
2022-07-29T14:57:08.897Z,28.87
2022-07-29T15:00:12.199Z,30.58
2022-07-29T15:03:23.850Z,29.00
2022-07-29T15:06:26.733Z,30.06
2022-07-29T15:09:28.675Z,30.86
2022-07-29T15:12:30.681Z,29.59
2022-07-29T15:15:32.726Z,30.46
2022-07-29T15:18:34.793Z,29.50
2022-07-29T15:21:48.050Z,29.68
2022-07-29T15:24:50.824Z,28.77
2022-07-29T15:27:54.790Z,27.51
2022-07-29T15:30:59.766Z,26.47
2022-07-29T15:34:05.391Z,26.54
2022-07-29T15:37:08.246Z,26.24
2022-07-29T15:40:10.743Z,26.06
2022-07-29T15:43:12.889Z,26.29
2022-07-29T15:46:35.333Z,26.43
2022-07-29T15:49:48.700Z,28.60
2022-07-29T15:52:51.234Z,28.42
2022-07-29T15:55:53.073Z,28.58
2022-07-29T15:58:54.863Z,28.23
2022-07-29T16:01:56.983Z,28.52
2022-07-29T16:04:58.694Z,28.86
2022-07-29T16:08:01.003Z,27.93
2022-07-29T16:11:03.071Z,27.87
2022-07-29T16:14:05.616Z,26.77
2022-07-29T16:17:14.436Z,25.46
2022-07-29T16:20:17.147Z,25.39
2022-07-29T16:23:19.281Z,27.66
2022-07-29T16:26:21.208Z,28.43
2022-07-29T16:29:23.167Z,28.76
2022-07-29T16:32:24.918Z,29.68
2022-07-29T16:35:39.577Z,29.57
2022-07-29T16:38:47.504Z,30.21
2022-07-29T16:41:49.833Z,31.42
2022-07-29T16:44:51.524Z,31.57
2022-07-29T16:48:00.179Z,32.04
2022-07-29T16:51:02.763Z,33.57
2022-07-29T16:54:04.490Z,33.90
2022-07-29T16:57:06.154Z,34.51
2022-07-29T17:00:08.455Z,34.81
2022-07-29T17:03:10.351Z,35.20
2022-07-29T17:06:14.403Z,35.47
2022-07-29T17:09:16.166Z,35.62
2022-07-29T17:12:19.025Z,36.55
2022-07-29T17:15:20.819Z,37.13
2022-07-29T17:18:22.845Z,38.18
2022-07-29T17:21:27.172Z,37.97
2022-07-29T17:24:29.252Z,38.32
2022-07-29T17:27:31.909Z,38.18
2022-07-29T17:30:33.675Z,38.37
2022-07-29T17:33:35.733Z,38.48
2022-07-29T17:36:37.622Z,38.74
2022-07-29T17:39:41.340Z,39.36
2022-07-29T17:42:43.373Z,39.23
2022-07-29T17:45:48.719Z,40.03
2022-07-29T17:48:52.366Z,40.25
2022-07-29T17:51:58.966Z,40.58
2022-07-29T17:55:02.965Z,40.10
2022-07-29T17:58:05.398Z,40.46
2022-07-29T18:01:07.470Z,41.18
2022-07-29T18:04:10.324Z,41.39
2022-07-29T18:07:12.327Z,41.92
2022-07-29T18:10:14.081Z,42.68
2022-07-29T18:13:21.931Z,43.07
2022-07-29T18:16:23.891Z,43.29
2022-07-29T18:19:25.797Z,43.68
2022-07-29T18:22:27.849Z,43.72
2022-07-29T18:25:29.747Z,43.53
2022-07-29T18:28:34.697Z,43.65
2022-07-29T18:31:36.679Z,43.56
2022-07-29T18:34:38.731Z,43.94
2022-07-29T18:38:01.695Z,44.21
2022-07-29T18:41:03.446Z,44.07
2022-07-29T18:44:05.724Z,44.70
2022-07-29T18:47:07.566Z,45.40
2022-07-29T18:50:13.315Z,45.87
2022-07-29T18:53:15.083Z,44.99
2022-07-29T18:56:17.109Z,42.96
2022-07-29T18:59:21.715Z,43.00
2022-07-29T19:02:23.851Z,42.30
2022-07-29T19:05:25.825Z,42.07
2022-07-29T19:08:27.613Z,43.07
2022-07-29T19:11:29.501Z,44.16
2022-07-29T19:14:31.303Z,44.57
2022-07-29T19:17:33.195Z,45.20
2022-07-29T19:20:35.285Z,45.38
2022-07-29T19:24:05.896Z,46.15
2022-07-29T19:26:59.453Z,46.14
2022-07-29T19:30:03.367Z,46.15
2022-07-29T19:33:05.227Z,47.76
2022-07-29T19:36:07.371Z,49.16
2022-07-29T19:39:09.369Z,50.23
2022-07-29T19:42:11.319Z,52.41
2022-07-29T19:45:13.281Z,52.80
2022-07-29T19:48:15.062Z,55.67
2022-07-29T19:51:17.476Z,56.50
2022-07-29T19:54:19.513Z,57.77
2022-07-29T19:57:21.370Z,57.97
2022-07-29T20:00:24.330Z,59.20
2022-07-29T20:03:26.007Z,60.43
2022-07-29T20:06:28.133Z,61.53
2022-07-29T20:09:30.286Z,63.12
2022-07-29T20:12:32.147Z,64.16
2022-07-29T20:15:34.441Z,65.50
2022-07-29T20:18:37.587Z,67.27
2022-07-29T20:21:39.243Z,72.70
2022-07-29T20:24:41.309Z,78.69
2022-07-29T20:27:46.345Z,83.25
2022-07-29T20:30:48.079Z,85.94
2022-07-29T20:33:49.765Z,85.85
2022-07-29T20:36:51.365Z,88.97
2022-07-29T20:39:52.907Z,100.00
2022-07-29T20:42:55.557Z,100.00
2022-07-29T20:45:57.346Z,100.00
2022-07-29T20:48:59.306Z,100.00
2022-07-29T20:52:00.878Z,100.00
2022-07-29T20:55:02.592Z,100.00
2022-07-29T20:58:05.067Z,100.00
2022-07-29T21:01:07.572Z,100.00
2022-07-29T21:04:10.103Z,100.00
2022-07-29T21:07:12.104Z,100.00
2022-07-29T21:10:14.899Z,100.00
2022-07-29T21:13:17.144Z,100.00
2022-07-29T21:16:20.126Z,100.00
2022-07-29T21:19:21.922Z,100.00
2022-07-29T21:22:23.787Z,100.00
2022-07-29T21:25:27.199Z,100.00
2022-07-29T21:28:36.777Z,100.00
2022-07-29T21:31:38.562Z,100.00
2022-07-29T21:34:40.383Z,100.00
2022-07-29T21:37:42.673Z,100.00
2022-07-29T21:40:49.014Z,100.00
2022-07-29T21:43:50.706Z,100.00
2022-07-29T21:46:53.668Z,100.00
2022-07-29T21:49:55.552Z,100.00
2022-07-29T21:52:57.677Z,100.00
2022-07-29T21:56:01.295Z,100.00
2022-07-29T21:59:03.456Z,100.00
2022-07-29T22:02:06.431Z,100.00
2022-07-29T22:05:09.094Z,100.00
2022-07-29T22:08:11.009Z,100.00
2022-07-29T22:11:13.834Z,100.00
2022-07-29T22:14:17.743Z,100.00
2022-07-29T22:17:23.327Z,100.00
2022-07-29T22:20:25.608Z,100.00
2022-07-29T22:23:28.576Z,100.00
2022-07-29T22:26:30.563Z,100.00
2022-07-29T22:29:32.754Z,100.00
2022-07-29T22:32:37.248Z,100.00
2022-07-29T22:35:39.135Z,100.00
2022-07-29T22:38:41.037Z,100.00
2022-07-29T22:41:43.090Z,100.00
2022-07-29T22:44:44.883Z,100.00
2022-07-29T22:47:48.690Z,100.00
2022-07-29T22:50:50.953Z,100.00
2022-07-29T22:53:53.088Z,100.00
2022-07-29T22:56:55.380Z,100.00
2022-07-29T22:59:57.636Z,100.00
2022-07-29T23:02:59.615Z,100.00
2022-07-29T23:06:01.832Z,100.00
2022-07-29T23:09:04.660Z,100.00
2022-07-29T23:12:07.068Z,100.00
2022-07-29T23:15:09.371Z,100.00
2022-07-29T23:18:11.231Z,100.00
2022-07-29T23:21:13.819Z,100.00
2022-07-29T23:24:15.796Z,100.00
2022-07-29T23:27:17.759Z,100.00
2022-07-29T23:30:19.765Z,100.00
2022-07-29T23:33:21.979Z,100.00
2022-07-29T23:36:24.026Z,100.00
2022-07-29T23:39:26.151Z,100.00
2022-07-29T23:42:28.153Z,100.00
2022-07-29T23:45:33.072Z,100.00
2022-07-29T23:48:46.860Z,100.00
2022-07-29T23:51:48.730Z,100.00
2022-07-29T23:54:50.362Z,100.00
2022-07-29T23:57:52.027Z,100.00
